sensor_id;sensor_type;location;lat;lon;timestamp;P1;durP1;ratioP1;P2;durP2;ratioP2
19836;SDS011;10079;55.740;37.662;2023-03-21T00:01:20;8.37;;;3.90;;
19836;SDS011;10079;55.740;37.662;2023-03-21T00:04:04;8.57;;;3.57;;
19836;SDS011;10079;55.740;37.662;2023-03-21T00:06:48;8.23;;;4.43;;
19836;SDS011;10079;55.740;37.662;2023-03-21T00:09:32;7.33;;;3.83;;
19836;SDS011;10079;55.740;37.662;2023-03-21T00:22:55;5.87;;;3.70;;
19836;SDS011;10079;55.740;37.662;2023-03-21T00:25:40;9.20;;;3.90;;
19836;SDS011;10079;55.740;37.662;2023-03-21T00:28:32;7.40;;;3.43;;
19836;SDS011;10079;55.740;37.662;2023-03-21T00:31:22;6.10;;;3.53;;
19836;SDS011;10079;55.740;37.662;2023-03-21T00:34:03;7.47;;;4.00;;
19836;SDS011;10079;55.740;37.662;2023-03-21T00:36:55;5.47;;;3.50;;
19836;SDS011;10079;55.740;37.662;2023-03-21T00:39:39;5.77;;;3.43;;
19836;SDS011;10079;55.740;37.662;2023-03-21T00:42:32;8.07;;;3.40;;
19836;SDS011;10079;55.740;37.662;2023-03-21T00:45:16;5.37;;;3.40;;
19836;SDS011;10079;55.740;37.662;2023-03-21T00:47:57;5.80;;;3.50;;
19836;SDS011;10079;55.740;37.662;2023-03-21T00:50:42;5.30;;;3.23;;
19836;SDS011;10079;55.740;37.662;2023-03-21T00:53:30;4.90;;;3.40;;
19836;SDS011;10079;55.740;37.662;2023-03-21T00:56:20;11.40;;;4.17;;
19836;SDS011;10079;55.740;37.662;2023-03-21T00:59:01;6.00;;;3.70;;
19836;SDS011;10079;55.740;37.662;2023-03-21T01:01:42;6.97;;;3.57;;
19836;SDS011;10079;55.740;37.662;2023-03-21T01:04:34;7.43;;;3.73;;
19836;SDS011;10079;55.740;37.662;2023-03-21T01:07:19;5.77;;;3.40;;
19836;SDS011;10079;55.740;37.662;2023-03-21T01:10:03;5.10;;;3.50;;
19836;SDS011;10079;55.740;37.662;2023-03-21T01:12:53;6.77;;;3.50;;
19836;SDS011;10079;55.740;37.662;2023-03-21T01:15:34;6.27;;;3.00;;
19836;SDS011;10079;55.740;37.662;2023-03-21T01:18:15;4.60;;;3.13;;
19836;SDS011;10079;55.740;37.662;2023-03-21T01:20:57;9.17;;;4.03;;
19836;SDS011;10079;55.740;37.662;2023-03-21T01:23:41;4.47;;;3.17;;
19836;SDS011;10079;55.740;37.662;2023-03-21T01:26:21;7.57;;;3.80;;
19836;SDS011;10079;55.740;37.662;2023-03-21T01:29:03;5.23;;;3.50;;
19836;SDS011;10079;55.740;37.662;2023-03-21T01:31:43;9.27;;;3.73;;
19836;SDS011;10079;55.740;37.662;2023-03-21T01:34:27;7.97;;;3.40;;
19836;SDS011;10079;55.740;37.662;2023-03-21T01:37:11;6.33;;;3.40;;
19836;SDS011;10079;55.740;37.662;2023-03-21T01:39:53;6.33;;;3.43;;
19836;SDS011;10079;55.740;37.662;2023-03-21T01:42:34;7.10;;;3.60;;
19836;SDS011;10079;55.740;37.662;2023-03-21T01:48:09;7.60;;;3.47;;
19836;SDS011;10079;55.740;37.662;2023-03-21T01:50:50;9.37;;;3.80;;
19836;SDS011;10079;55.740;37.662;2023-03-21T01:53:31;6.17;;;3.70;;
19836;SDS011;10079;55.740;37.662;2023-03-21T01:56:16;5.80;;;3.70;;
19836;SDS011;10079;55.740;37.662;2023-03-21T01:59:00;8.67;;;4.17;;
19836;SDS011;10079;55.740;37.662;2023-03-21T02:01:39;7.20;;;3.60;;
19836;SDS011;10079;55.740;37.662;2023-03-21T02:04:20;6.53;;;3.97;;
19836;SDS011;10079;55.740;37.662;2023-03-21T02:07:14;8.27;;;4.17;;
19836;SDS011;10079;55.740;37.662;2023-03-21T02:09:53;6.23;;;3.57;;
19836;SDS011;10079;55.740;37.662;2023-03-21T02:12:43;5.87;;;3.50;;
19836;SDS011;10079;55.740;37.662;2023-03-21T02:15:24;6.60;;;4.13;;
19836;SDS011;10079;55.740;37.662;2023-03-21T02:18:15;8.33;;;4.37;;
19836;SDS011;10079;55.740;37.662;2023-03-21T02:31:35;9.43;;;5.00;;
19836;SDS011;10079;55.740;37.662;2023-03-21T02:34:21;8.63;;;4.20;;
19836;SDS011;10079;55.740;37.662;2023-03-21T02:37:18;8.33;;;4.40;;
19836;SDS011;10079;55.740;37.662;2023-03-21T02:40:04;7.80;;;4.50;;
19836;SDS011;10079;55.740;37.662;2023-03-21T02:43:09;6.00;;;3.70;;
19836;SDS011;10079;55.740;37.662;2023-03-21T02:45:57;14.17;;;4.97;;
19836;SDS011;10079;55.740;37.662;2023-03-21T02:51:40;10.13;;;4.30;;
19836;SDS011;10079;55.740;37.662;2023-03-21T02:54:21;12.10;;;4.40;;
19836;SDS011;10079;55.740;37.662;2023-03-21T02:57:05;8.70;;;5.23;;
19836;SDS011;10079;55.740;37.662;2023-03-21T02:59:58;7.83;;;4.23;;
19836;SDS011;10079;55.740;37.662;2023-03-21T03:02:51;9.80;;;4.47;;
19836;SDS011;10079;55.740;37.662;2023-03-21T03:05:46;8.30;;;5.07;;
19836;SDS011;10079;55.740;37.662;2023-03-21T03:22:22;8.87;;;4.03;;
19836;SDS011;10079;55.740;37.662;2023-03-21T03:25:16;7.50;;;4.70;;
19836;SDS011;10079;55.740;37.662;2023-03-21T03:27:59;8.47;;;4.70;;
19836;SDS011;10079;55.740;37.662;2023-03-21T03:30:44;8.63;;;4.63;;
19836;SDS011;10079;55.740;37.662;2023-03-21T03:33:35;9.03;;;4.63;;
19836;SDS011;10079;55.740;37.662;2023-03-21T03:36:15;9.90;;;5.07;;
19836;SDS011;10079;55.740;37.662;2023-03-21T03:38:56;10.50;;;4.87;;
19836;SDS011;10079;55.740;37.662;2023-03-21T03:41:44;11.17;;;4.63;;
19836;SDS011;10079;55.740;37.662;2023-03-21T03:44:36;7.63;;;4.17;;
19836;SDS011;10079;55.740;37.662;2023-03-21T03:47:21;7.47;;;4.37;;
19836;SDS011;10079;55.740;37.662;2023-03-21T03:50:25;11.40;;;4.80;;
19836;SDS011;10079;55.740;37.662;2023-03-21T03:53:14;11.13;;;4.50;;
19836;SDS011;10079;55.740;37.662;2023-03-21T04:06:27;8.67;;;4.67;;
19836;SDS011;10079;55.740;37.662;2023-03-21T04:09:08;8.67;;;4.40;;
19836;SDS011;10079;55.740;37.662;2023-03-21T04:11:48;7.77;;;4.17;;
19836;SDS011;10079;55.740;37.662;2023-03-21T04:14:33;8.47;;;4.00;;
19836;SDS011;10079;55.740;37.662;2023-03-21T04:17:13;6.83;;;3.93;;
19836;SDS011;10079;55.740;37.662;2023-03-21T04:19:58;10.60;;;5.17;;
19836;SDS011;10079;55.740;37.662;2023-03-21T04:22:42;10.93;;;4.63;;
19836;SDS011;10079;55.740;37.662;2023-03-21T04:25:26;7.30;;;4.87;;
19836;SDS011;10079;55.740;37.662;2023-03-21T04:28:06;11.03;;;4.33;;
19836;SDS011;10079;55.740;37.662;2023-03-21T04:30:48;8.70;;;4.93;;
19836;SDS011;10079;55.740;37.662;2023-03-21T04:33:29;6.83;;;4.57;;
19836;SDS011;10079;55.740;37.662;2023-03-21T04:36:21;10.33;;;4.43;;
19836;SDS011;10079;55.740;37.662;2023-03-21T04:39:02;10.20;;;5.03;;
19836;SDS011;10079;55.740;37.662;2023-03-21T04:41:45;9.53;;;5.07;;
19836;SDS011;10079;55.740;37.662;2023-03-21T04:44:26;7.57;;;5.00;;
19836;SDS011;10079;55.740;37.662;2023-03-21T04:47:07;13.00;;;4.97;;
19836;SDS011;10079;55.740;37.662;2023-03-21T04:49:51;10.47;;;4.87;;
19836;SDS011;10079;55.740;37.662;2023-03-21T04:52:32;8.60;;;4.50;;
19836;SDS011;10079;55.740;37.662;2023-03-21T04:55:13;11.17;;;4.63;;
19836;SDS011;10079;55.740;37.662;2023-03-21T04:57:54;10.53;;;5.37;;
19836;SDS011;10079;55.740;37.662;2023-03-21T05:00:34;13.83;;;5.07;;
19836;SDS011;10079;55.740;37.662;2023-03-21T05:03:16;11.07;;;4.83;;
19836;SDS011;10079;55.740;37.662;2023-03-21T05:05:56;9.80;;;5.00;;
19836;SDS011;10079;55.740;37.662;2023-03-21T05:08:49;10.73;;;5.23;;
19836;SDS011;10079;55.740;37.662;2023-03-21T05:11:30;11.77;;;4.90;;
19836;SDS011;10079;55.740;37.662;2023-03-21T05:14:13;8.10;;;4.67;;
19836;SDS011;10079;55.740;37.662;2023-03-21T05:16:52;11.77;;;5.07;;
19836;SDS011;10079;55.740;37.662;2023-03-21T05:19:39;10.30;;;5.83;;
19836;SDS011;10079;55.740;37.662;2023-03-21T05:22:21;10.93;;;5.10;;
19836;SDS011;10079;55.740;37.662;2023-03-21T05:25:02;11.83;;;4.90;;
19836;SDS011;10079;55.740;37.662;2023-03-21T05:27:46;8.63;;;4.90;;
19836;SDS011;10079;55.740;37.662;2023-03-21T05:41:06;13.13;;;5.70;;
19836;SDS011;10079;55.740;37.662;2023-03-21T05:43:59;8.73;;;4.97;;
19836;SDS011;10079;55.740;37.662;2023-03-21T05:46:39;11.87;;;5.90;;
19836;SDS011;10079;55.740;37.662;2023-03-21T05:49:29;13.20;;;5.30;;
19836;SDS011;10079;55.740;37.662;2023-03-21T05:52:13;13.83;;;5.80;;
19836;SDS011;10079;55.740;37.662;2023-03-21T05:54:57;10.17;;;5.03;;
19836;SDS011;10079;55.740;37.662;2023-03-21T06:18:50;13.03;;;6.27;;
19836;SDS011;10079;55.740;37.662;2023-03-21T06:21:31;11.27;;;5.77;;
19836;SDS011;10079;55.740;37.662;2023-03-21T06:24:12;10.50;;;5.83;;
19836;SDS011;10079;55.740;37.662;2023-03-21T06:26:53;12.47;;;5.97;;
19836;SDS011;10079;55.740;37.662;2023-03-21T06:40:13;16.17;;;7.57;;
19836;SDS011;10079;55.740;37.662;2023-03-21T06:42:54;14.37;;;6.33;;
19836;SDS011;10079;55.740;37.662;2023-03-21T06:45:35;14.10;;;7.87;;
19836;SDS011;10079;55.740;37.662;2023-03-21T06:48:19;15.40;;;7.27;;
19836;SDS011;10079;55.740;37.662;2023-03-21T06:51:09;16.60;;;6.63;;
19836;SDS011;10079;55.740;37.662;2023-03-21T06:53:54;17.93;;;7.47;;
19836;SDS011;10079;55.740;37.662;2023-03-21T07:07:13;9.43;;;6.70;;
19836;SDS011;10079;55.740;37.662;2023-03-21T07:09:54;10.60;;;7.00;;
19836;SDS011;10079;55.740;37.662;2023-03-21T07:12:34;10.13;;;7.07;;
19836;SDS011;10079;55.740;37.662;2023-03-21T07:15:18;11.17;;;6.57;;
19836;SDS011;10079;55.740;37.662;2023-03-21T07:18:12;14.67;;;6.97;;
19836;SDS011;10079;55.740;37.662;2023-03-21T07:20:53;17.13;;;6.50;;
19836;SDS011;10079;55.740;37.662;2023-03-21T07:23:46;12.40;;;6.47;;
19836;SDS011;10079;55.740;37.662;2023-03-21T07:26:30;15.23;;;6.63;;
19836;SDS011;10079;55.740;37.662;2023-03-21T07:29:11;8.17;;;5.53;;
19836;SDS011;10079;55.740;37.662;2023-03-21T07:31:52;10.70;;;6.50;;
19836;SDS011;10079;55.740;37.662;2023-03-21T07:34:36;16.30;;;6.50;;
19836;SDS011;10079;55.740;37.662;2023-03-21T07:37:17;13.33;;;6.93;;
19836;SDS011;10079;55.740;37.662;2023-03-21T07:39:58;11.47;;;6.70;;
19836;SDS011;10079;55.740;37.662;2023-03-21T07:42:40;13.20;;;7.37;;
19836;SDS011;10079;55.740;37.662;2023-03-21T07:45:21;14.10;;;7.23;;
19836;SDS011;10079;55.740;37.662;2023-03-21T07:48:02;14.47;;;7.57;;
19836;SDS011;10079;55.740;37.662;2023-03-21T07:50:43;14.13;;;7.53;;
19836;SDS011;10079;55.740;37.662;2023-03-21T07:53:24;12.23;;;7.13;;
19836;SDS011;10079;55.740;37.662;2023-03-21T07:56:05;12.50;;;7.20;;
19836;SDS011;10079;55.740;37.662;2023-03-21T07:58:47;11.73;;;7.43;;
19836;SDS011;10079;55.740;37.662;2023-03-21T08:01:31;10.37;;;6.30;;
19836;SDS011;10079;55.740;37.662;2023-03-21T08:14:48;18.40;;;8.43;;
19836;SDS011;10079;55.740;37.662;2023-03-21T08:17:29;10.50;;;6.40;;
19836;SDS011;10079;55.740;37.662;2023-03-21T08:20:22;8.50;;;5.97;;
19836;SDS011;10079;55.740;37.662;2023-03-21T08:23:02;10.23;;;6.37;;
19836;SDS011;10079;55.740;37.662;2023-03-21T08:25:50;8.37;;;6.53;;
19836;SDS011;10079;55.740;37.662;2023-03-21T08:28:31;12.37;;;6.17;;
19836;SDS011;10079;55.740;37.662;2023-03-21T08:41:45;10.13;;;6.33;;
19836;SDS011;10079;55.740;37.662;2023-03-21T08:44:29;10.67;;;6.63;;
19836;SDS011;10079;55.740;37.662;2023-03-21T08:47:13;11.27;;;6.40;;
19836;SDS011;10079;55.740;37.662;2023-03-21T08:50:06;9.63;;;6.63;;
19836;SDS011;10079;55.740;37.662;2023-03-21T08:52:48;10.27;;;5.73;;
19836;SDS011;10079;55.740;37.662;2023-03-21T08:55:32;8.33;;;5.93;;
19836;SDS011;10079;55.740;37.662;2023-03-21T08:58:25;10.57;;;6.47;;
19836;SDS011;10079;55.740;37.662;2023-03-21T09:01:14;9.67;;;6.37;;
19836;SDS011;10079;55.740;37.662;2023-03-21T09:14:35;8.63;;;6.30;;
19836;SDS011;10079;55.740;37.662;2023-03-21T09:17:16;9.47;;;6.30;;
19836;SDS011;10079;55.740;37.662;2023-03-21T09:19:56;10.60;;;7.03;;
19836;SDS011;10079;55.740;37.662;2023-03-21T09:33:09;11.97;;;7.53;;
19836;SDS011;10079;55.740;37.662;2023-03-21T09:36:06;7.63;;;5.53;;
19836;SDS011;10079;55.740;37.662;2023-03-21T09:49:41;8.83;;;6.53;;
19836;SDS011;10079;55.740;37.662;2023-03-21T10:02:53;9.33;;;5.87;;
19836;SDS011;10079;55.740;37.662;2023-03-21T10:05:45;9.63;;;5.30;;
19836;SDS011;10079;55.740;37.662;2023-03-21T10:08:27;7.63;;;5.40;;
19836;SDS011;10079;55.740;37.662;2023-03-21T10:11:16;5.83;;;4.77;;
19836;SDS011;10079;55.740;37.662;2023-03-21T10:13:57;6.80;;;4.83;;
19836;SDS011;10079;55.740;37.662;2023-03-21T10:16:54;7.00;;;5.20;;
19836;SDS011;10079;55.740;37.662;2023-03-21T10:19:33;5.33;;;4.70;;
19836;SDS011;10079;55.740;37.662;2023-03-21T10:22:13;7.43;;;4.37;;
19836;SDS011;10079;55.740;37.662;2023-03-21T10:24:54;6.90;;;4.63;;
19836;SDS011;10079;55.740;37.662;2023-03-21T10:27:35;7.37;;;4.33;;
19836;SDS011;10079;55.740;37.662;2023-03-21T10:30:18;5.87;;;4.80;;
19836;SDS011;10079;55.740;37.662;2023-03-21T10:32:59;6.03;;;4.87;;
19836;SDS011;10079;55.740;37.662;2023-03-21T10:35:44;6.33;;;5.10;;
19836;SDS011;10079;55.740;37.662;2023-03-21T10:38:32;6.53;;;5.00;;
19836;SDS011;10079;55.740;37.662;2023-03-21T10:41:24;8.87;;;5.70;;
19836;SDS011;10079;55.740;37.662;2023-03-21T10:44:09;9.17;;;5.57;;
19836;SDS011;10079;55.740;37.662;2023-03-21T10:46:51;7.17;;;4.93;;
19836;SDS011;10079;55.740;37.662;2023-03-21T10:49:38;7.13;;;5.53;;
19836;SDS011;10079;55.740;37.662;2023-03-21T10:52:22;7.67;;;5.17;;
19836;SDS011;10079;55.740;37.662;2023-03-21T10:55:06;9.87;;;6.07;;
19836;SDS011;10079;55.740;37.662;2023-03-21T10:57:51;11.67;;;6.00;;
19836;SDS011;10079;55.740;37.662;2023-03-21T11:00:41;6.87;;;5.53;;
19836;SDS011;10079;55.740;37.662;2023-03-21T11:03:27;6.77;;;5.40;;
19836;SDS011;10079;55.740;37.662;2023-03-21T11:06:21;7.63;;;5.30;;
19836;SDS011;10079;55.740;37.662;2023-03-21T11:09:14;7.67;;;6.03;;
19836;SDS011;10079;55.740;37.662;2023-03-21T11:12:01;10.40;;;5.47;;
19836;SDS011;10079;55.740;37.662;2023-03-21T11:14:54;8.33;;;5.90;;
19836;SDS011;10079;55.740;37.662;2023-03-21T11:17:48;7.80;;;5.80;;
19836;SDS011;10079;55.740;37.662;2023-03-21T11:20:32;9.87;;;5.67;;
19836;SDS011;10079;55.740;37.662;2023-03-21T11:23:13;7.37;;;5.13;;
19836;SDS011;10079;55.740;37.662;2023-03-21T11:25:58;8.80;;;4.40;;
19836;SDS011;10079;55.740;37.662;2023-03-21T11:28:39;6.53;;;4.90;;
19836;SDS011;10079;55.740;37.662;2023-03-21T11:34:24;7.87;;;4.50;;
19836;SDS011;10079;55.740;37.662;2023-03-21T11:37:15;11.20;;;4.67;;
19836;SDS011;10079;55.740;37.662;2023-03-21T11:39:54;8.03;;;4.20;;
19836;SDS011;10079;55.740;37.662;2023-03-21T11:42:41;9.13;;;4.47;;
19836;SDS011;10079;55.740;37.662;2023-03-21T11:45:27;8.20;;;4.77;;
19836;SDS011;10079;55.740;37.662;2023-03-21T11:48:11;7.10;;;4.20;;
19836;SDS011;10079;55.740;37.662;2023-03-21T11:50:55;6.70;;;4.13;;
19836;SDS011;10079;55.740;37.662;2023-03-21T11:53:38;5.73;;;3.83;;
19836;SDS011;10079;55.740;37.662;2023-03-21T11:56:26;8.77;;;4.30;;
19836;SDS011;10079;55.740;37.662;2023-03-21T12:02:27;5.80;;;3.90;;
19836;SDS011;10079;55.740;37.662;2023-03-21T12:05:16;5.03;;;3.60;;
19836;SDS011;10079;55.740;37.662;2023-03-21T12:14:04;9.07;;;4.50;;
19836;SDS011;10079;55.740;37.662;2023-03-21T12:16:48;8.37;;;4.60;;
19836;SDS011;10079;55.740;37.662;2023-03-21T12:19:50;8.13;;;4.20;;
19836;SDS011;10079;55.740;37.662;2023-03-21T12:22:56;7.63;;;4.23;;
19836;SDS011;10079;55.740;37.662;2023-03-21T12:28:32;9.30;;;4.47;;
19836;SDS011;10079;55.740;37.662;2023-03-21T12:31:17;4.73;;;3.53;;
19836;SDS011;10079;55.740;37.662;2023-03-21T12:34:16;6.47;;;3.83;;
19836;SDS011;10079;55.740;37.662;2023-03-21T12:37:02;5.40;;;4.00;;
19836;SDS011;10079;55.740;37.662;2023-03-21T12:39:57;4.57;;;3.40;;
19836;SDS011;10079;55.740;37.662;2023-03-21T12:42:42;10.73;;;4.70;;
19836;SDS011;10079;55.740;37.662;2023-03-21T12:45:46;6.37;;;3.60;;
19836;SDS011;10079;55.740;37.662;2023-03-21T12:51:25;5.13;;;3.07;;
19836;SDS011;10079;55.740;37.662;2023-03-21T12:54:24;5.43;;;2.63;;
19836;SDS011;10079;55.740;37.662;2023-03-21T12:57:22;9.57;;;3.40;;
19836;SDS011;10079;55.740;37.662;2023-03-21T13:00:04;4.83;;;3.67;;
19836;SDS011;10079;55.740;37.662;2023-03-21T13:02:53;5.13;;;3.37;;
19836;SDS011;10079;55.740;37.662;2023-03-21T13:05:51;5.53;;;3.50;;
19836;SDS011;10079;55.740;37.662;2023-03-21T13:08:32;5.13;;;3.10;;
19836;SDS011;10079;55.740;37.662;2023-03-21T13:11:18;6.73;;;3.20;;
19836;SDS011;10079;55.740;37.662;2023-03-21T13:14:12;4.33;;;3.47;;
19836;SDS011;10079;55.740;37.662;2023-03-21T13:17:10;4.57;;;3.33;;
19836;SDS011;10079;55.740;37.662;2023-03-21T13:19:54;4.53;;;3.20;;
19836;SDS011;10079;55.740;37.662;2023-03-21T13:22:37;8.10;;;4.20;;
19836;SDS011;10079;55.740;37.662;2023-03-21T13:25:27;6.17;;;3.67;;
19836;SDS011;10079;55.740;37.662;2023-03-21T13:28:21;6.73;;;3.90;;
19836;SDS011;10079;55.740;37.662;2023-03-21T13:55:13;8.30;;;3.67;;
19836;SDS011;10079;55.740;37.662;2023-03-21T13:57:48;8.40;;;4.17;;
19836;SDS011;10079;55.740;37.662;2023-03-21T14:00:29;10.60;;;3.70;;
19836;SDS011;10079;55.740;37.662;2023-03-21T14:34:59;5.30;;;3.73;;
19836;SDS011;10079;55.740;37.662;2023-03-21T14:37:42;6.13;;;3.80;;
19836;SDS011;10079;55.740;37.662;2023-03-21T14:40:23;7.37;;;3.90;;
19836;SDS011;10079;55.740;37.662;2023-03-21T14:43:05;6.10;;;3.70;;
19836;SDS011;10079;55.740;37.662;2023-03-21T14:45:47;5.33;;;3.47;;
19836;SDS011;10079;55.740;37.662;2023-03-21T14:48:29;6.27;;;4.07;;
19836;SDS011;10079;55.740;37.662;2023-03-21T14:51:10;8.47;;;3.90;;
19836;SDS011;10079;55.740;37.662;2023-03-21T14:53:51;7.90;;;3.63;;
19836;SDS011;10079;55.740;37.662;2023-03-21T14:56:46;9.70;;;3.70;;
19836;SDS011;10079;55.740;37.662;2023-03-21T14:59:32;6.13;;;3.73;;
19836;SDS011;10079;55.740;37.662;2023-03-21T15:02:17;4.60;;;3.63;;
19836;SDS011;10079;55.740;37.662;2023-03-21T15:04:57;5.47;;;3.50;;
19836;SDS011;10079;55.740;37.662;2023-03-21T15:07:38;7.10;;;3.47;;
19836;SDS011;10079;55.740;37.662;2023-03-21T15:10:19;7.07;;;3.80;;
19836;SDS011;10079;55.740;37.662;2023-03-21T15:13:00;9.70;;;4.07;;
19836;SDS011;10079;55.740;37.662;2023-03-21T15:15:41;8.57;;;4.37;;
19836;SDS011;10079;55.740;37.662;2023-03-21T15:18:27;8.33;;;4.07;;
19836;SDS011;10079;55.740;37.662;2023-03-21T15:21:20;8.77;;;4.50;;
19836;SDS011;10079;55.740;37.662;2023-03-21T15:24:05;9.40;;;4.87;;
19836;SDS011;10079;55.740;37.662;2023-03-21T15:26:57;8.77;;;4.40;;
19836;SDS011;10079;55.740;37.662;2023-03-21T15:29:38;7.40;;;4.17;;
19836;SDS011;10079;55.740;37.662;2023-03-21T15:32:20;12.57;;;5.30;;
19836;SDS011;10079;55.740;37.662;2023-03-21T15:35:04;7.70;;;4.40;;
19836;SDS011;10079;55.740;37.662;2023-03-21T15:37:50;7.63;;;4.27;;
19836;SDS011;10079;55.740;37.662;2023-03-21T15:40:28;9.10;;;5.53;;
19836;SDS011;10079;55.740;37.662;2023-03-21T15:45:55;9.03;;;4.70;;
19836;SDS011;10079;55.740;37.662;2023-03-21T15:48:36;10.10;;;5.00;;
19836;SDS011;10079;55.740;37.662;2023-03-21T15:51:20;9.20;;;4.77;;
19836;SDS011;10079;55.740;37.662;2023-03-21T15:54:14;9.10;;;4.60;;
19836;SDS011;10079;55.740;37.662;2023-03-21T15:57:15;10.77;;;4.90;;
19836;SDS011;10079;55.740;37.662;2023-03-21T16:00:16;8.27;;;4.30;;
19836;SDS011;10079;55.740;37.662;2023-03-21T16:02:55;13.50;;;5.07;;
19836;SDS011;10079;55.740;37.662;2023-03-21T16:05:35;9.83;;;4.43;;
19836;SDS011;10079;55.740;37.662;2023-03-21T16:08:37;9.93;;;4.30;;
19836;SDS011;10079;55.740;37.662;2023-03-21T16:11:25;9.60;;;4.60;;
19836;SDS011;10079;55.740;37.662;2023-03-21T16:14:05;7.67;;;3.87;;
19836;SDS011;10079;55.740;37.662;2023-03-21T16:16:49;9.33;;;4.40;;
19836;SDS011;10079;55.740;37.662;2023-03-21T16:19:31;9.47;;;4.40;;
19836;SDS011;10079;55.740;37.662;2023-03-21T16:22:15;9.93;;;4.70;;
19836;SDS011;10079;55.740;37.662;2023-03-21T16:24:56;6.63;;;4.27;;
19836;SDS011;10079;55.740;37.662;2023-03-21T16:27:38;7.67;;;4.37;;
19836;SDS011;10079;55.740;37.662;2023-03-21T16:30:24;6.10;;;4.37;;
19836;SDS011;10079;55.740;37.662;2023-03-21T16:33:16;7.47;;;4.30;;
19836;SDS011;10079;55.740;37.662;2023-03-21T16:35:57;12.03;;;4.60;;
19836;SDS011;10079;55.740;37.662;2023-03-21T16:38:42;8.57;;;4.60;;
19836;SDS011;10079;55.740;37.662;2023-03-21T16:52:03;5.83;;;4.07;;
19836;SDS011;10079;55.740;37.662;2023-03-21T17:15:46;8.20;;;5.10;;
19836;SDS011;10079;55.740;37.662;2023-03-21T17:18:33;9.13;;;4.80;;
19836;SDS011;10079;55.740;37.662;2023-03-21T17:21:18;7.87;;;5.17;;
19836;SDS011;10079;55.740;37.662;2023-03-21T17:24:02;7.17;;;5.00;;
19836;SDS011;10079;55.740;37.662;2023-03-21T17:26:43;9.70;;;5.27;;
19836;SDS011;10079;55.740;37.662;2023-03-21T17:29:37;10.53;;;5.77;;
19836;SDS011;10079;55.740;37.662;2023-03-21T17:32:18;8.37;;;4.77;;
19836;SDS011;10079;55.740;37.662;2023-03-21T17:34:59;10.48;;;5.85;;
19836;SDS011;10079;55.740;37.662;2023-03-21T17:37:43;8.03;;;5.43;;
19836;SDS011;10079;55.740;37.662;2023-03-21T17:40:26;9.63;;;5.60;;
19836;SDS011;10079;55.740;37.662;2023-03-21T17:43:18;10.67;;;7.10;;
19836;SDS011;10079;55.740;37.662;2023-03-21T17:46:10;9.77;;;6.80;;
19836;SDS011;10079;55.740;37.662;2023-03-21T17:52:22;12.40;;;8.40;;
19836;SDS011;10079;55.740;37.662;2023-03-21T17:55:07;12.60;;;8.00;;
19836;SDS011;10079;55.740;37.662;2023-03-21T17:57:59;14.07;;;8.57;;
19836;SDS011;10079;55.740;37.662;2023-03-21T18:00:40;14.67;;;9.27;;
19836;SDS011;10079;55.740;37.662;2023-03-21T18:03:26;15.20;;;9.20;;
19836;SDS011;10079;55.740;37.662;2023-03-21T18:06:14;15.87;;;9.60;;
19836;SDS011;10079;55.740;37.662;2023-03-21T18:09:09;17.77;;;10.40;;
19836;SDS011;10079;55.740;37.662;2023-03-21T18:11:50;16.17;;;11.30;;
19836;SDS011;10079;55.740;37.662;2023-03-21T18:14:31;19.03;;;12.37;;
19836;SDS011;10079;55.740;37.662;2023-03-21T18:17:15;16.90;;;12.10;;
19836;SDS011;10079;55.740;37.662;2023-03-21T18:19:56;23.43;;;13.03;;
19836;SDS011;10079;55.740;37.662;2023-03-21T18:22:38;21.87;;;12.97;;
19836;SDS011;10079;55.740;37.662;2023-03-21T18:36:01;22.43;;;14.47;;
19836;SDS011;10079;55.740;37.662;2023-03-21T18:38:45;21.00;;;14.23;;
19836;SDS011;10079;55.740;37.662;2023-03-21T18:52:16;21.83;;;14.57;;
19836;SDS011;10079;55.740;37.662;2023-03-21T18:55:06;20.23;;;13.00;;
19836;SDS011;10079;55.740;37.662;2023-03-21T18:58:00;19.93;;;12.13;;
19836;SDS011;10079;55.740;37.662;2023-03-21T19:00:53;18.57;;;12.37;;
19836;SDS011;10079;55.740;37.662;2023-03-21T19:03:38;24.67;;;14.03;;
19836;SDS011;10079;55.740;37.662;2023-03-21T19:06:29;18.93;;;12.60;;
19836;SDS011;10079;55.740;37.662;2023-03-21T19:09:13;21.57;;;12.43;;
19836;SDS011;10079;55.740;37.662;2023-03-21T19:12:07;17.53;;;10.50;;
19836;SDS011;10079;55.740;37.662;2023-03-21T19:14:48;17.83;;;11.63;;
19836;SDS011;10079;55.740;37.662;2023-03-21T19:28:01;14.90;;;9.90;;
19836;SDS011;10079;55.740;37.662;2023-03-21T19:30:42;17.03;;;10.63;;
19836;SDS011;10079;55.740;37.662;2023-03-21T19:33:30;15.77;;;10.13;;
19836;SDS011;10079;55.740;37.662;2023-03-21T19:36:12;16.80;;;10.47;;
19836;SDS011;10079;55.740;37.662;2023-03-21T19:38:54;16.40;;;10.07;;
19836;SDS011;10079;55.740;37.662;2023-03-21T19:41:36;18.87;;;10.50;;
19836;SDS011;10079;55.740;37.662;2023-03-21T19:44:20;16.70;;;9.97;;
19836;SDS011;10079;55.740;37.662;2023-03-21T19:47:07;14.30;;;9.67;;
19836;SDS011;10079;55.740;37.662;2023-03-21T19:49:52;15.57;;;9.77;;
19836;SDS011;10079;55.740;37.662;2023-03-21T19:52:39;16.63;;;10.00;;
19836;SDS011;10079;55.740;37.662;2023-03-21T19:55:43;16.43;;;10.20;;
19836;SDS011;10079;55.740;37.662;2023-03-21T19:58:34;15.93;;;10.33;;
19836;SDS011;10079;55.740;37.662;2023-03-21T20:01:15;16.10;;;9.60;;
19836;SDS011;10079;55.740;37.662;2023-03-21T20:04:00;16.53;;;9.83;;
19836;SDS011;10079;55.740;37.662;2023-03-21T20:06:42;14.70;;;9.40;;
19836;SDS011;10079;55.740;37.662;2023-03-21T20:09:25;14.80;;;9.53;;
19836;SDS011;10079;55.740;37.662;2023-03-21T20:12:06;15.40;;;9.80;;
19836;SDS011;10079;55.740;37.662;2023-03-21T20:14:48;16.47;;;10.37;;
19836;SDS011;10079;55.740;37.662;2023-03-21T20:17:38;17.90;;;10.47;;
19836;SDS011;10079;55.740;37.662;2023-03-21T20:20:19;15.37;;;9.63;;
19836;SDS011;10079;55.740;37.662;2023-03-21T20:23:00;14.77;;;9.47;;
19836;SDS011;10079;55.740;37.662;2023-03-21T20:36:18;13.90;;;9.17;;
19836;SDS011;10079;55.740;37.662;2023-03-21T20:39:01;15.60;;;9.60;;
19836;SDS011;10079;55.740;37.662;2023-03-21T20:41:42;16.27;;;9.27;;
19836;SDS011;10079;55.740;37.662;2023-03-21T20:44:34;15.67;;;9.30;;
19836;SDS011;10079;55.740;37.662;2023-03-21T20:47:16;15.30;;;10.20;;
19836;SDS011;10079;55.740;37.662;2023-03-21T20:49:57;14.27;;;8.67;;
19836;SDS011;10079;55.740;37.662;2023-03-21T20:52:38;13.23;;;8.53;;
19836;SDS011;10079;55.740;37.662;2023-03-21T20:55:19;15.37;;;9.80;;
19836;SDS011;10079;55.740;37.662;2023-03-21T20:58:00;14.60;;;8.77;;
19836;SDS011;10079;55.740;37.662;2023-03-21T21:00:41;13.53;;;8.80;;
19836;SDS011;10079;55.740;37.662;2023-03-21T21:03:22;14.03;;;8.57;;
19836;SDS011;10079;55.740;37.662;2023-03-21T21:06:18;13.00;;;8.57;;
19836;SDS011;10079;55.740;37.662;2023-03-21T21:08:59;14.57;;;9.03;;
19836;SDS011;10079;55.740;37.662;2023-03-21T21:11:43;15.77;;;9.17;;
19836;SDS011;10079;55.740;37.662;2023-03-21T21:14:24;13.93;;;8.83;;
19836;SDS011;10079;55.740;37.662;2023-03-21T21:17:17;13.43;;;8.57;;
19836;SDS011;10079;55.740;37.662;2023-03-21T21:20:02;13.63;;;8.80;;
19836;SDS011;10079;55.740;37.662;2023-03-21T21:22:44;13.23;;;8.07;;
19836;SDS011;10079;55.740;37.662;2023-03-21T21:25:31;13.17;;;8.63;;
19836;SDS011;10079;55.740;37.662;2023-03-21T21:28:12;13.80;;;8.77;;
19836;SDS011;10079;55.740;37.662;2023-03-21T21:31:08;14.30;;;8.67;;
19836;SDS011;10079;55.740;37.662;2023-03-21T21:34:03;15.20;;;8.07;;
19836;SDS011;10079;55.740;37.662;2023-03-21T21:36:44;12.27;;;7.60;;